Time;durP1;ratioP1;P1;durP2;ratioP2;P2;SDS_P1;SDS_P2;PMS_P1;PMS_P2;Temp;Humidity;BMP_temperature;BMP_pressure;BME280_temperature;BME280_humidity;BME280_pressure;Samples;Min_cycle;Max_cycle;Signal;HPM_P1;HPM_P2
2023/04/09 00:01:59;;;;;;;;;;;12.80;97.20;;;;;;5101097;28;19931;-59
2023/04/09 00:04:24;;;;;;;;;;;12.80;96.30;;;;;;5101214;28;20397;-59
2023/04/09 00:06:50;;;;;;;;;;;12.90;96.00;;;;;;5100962;28;19912;-59
2023/04/09 00:09:15;;;;;;;;;;;12.90;97.10;;;;;;5100940;28;19912;-59
2023/04/09 00:11:41;;;;;;;;;;;12.80;97.40;;;;;;5101388;28;19916;-59
2023/04/09 00:14:07;;;;;;;;;;;12.70;97.00;;;;;;5100846;28;20362;-59
2023/04/09 00:16:32;;;;;;;;;;;12.80;97.20;;;;;;5101136;28;19957;-59
2023/04/09 00:18:58;;;;;;;;;;;12.80;96.40;;;;;;5100949;28;19908;-59
2023/04/09 00:21:23;;;;;;;;;;;12.90;95.60;;;;;;5100929;28;19942;-59
2023/04/09 00:23:49;;;;;;;;;;;12.90;96.90;;;;;;5101094;28;19953;-59
2023/04/09 00:26:15;;;;;;;;;;;12.90;96.20;;;;;;5100346;28;19920;-59
2023/04/09 00:28:40;;;;;;;;;;;12.80;96.20;;;;;;5100723;28;19972;-59
2023/04/09 00:31:06;;;;;;;;;;;12.70;98.10;;;;;;5101057;28;20407;-59
2023/04/09 00:33:32;;;;;;;;;;;12.80;97.80;;;;;;5100477;28;19908;-59
2023/04/09 00:35:57;;;;;;;;;;;12.80;96.60;;;;;;5100439;28;19954;-59
2023/04/09 00:38:23;;;;;;;;;;;12.80;96.10;;;;;;5100585;28;19916;-59
2023/04/09 00:40:49;;;;;;;;;;;12.80;98.00;;;;;;5100525;28;19998;-59
2023/04/09 00:43:15;;;;;;;;;;;12.80;98.00;;;;;;5100499;28;19908;-59
2023/04/09 00:45:41;;;;;;;;;;;12.80;98.40;;;;;;5100560;28;19908;-59
2023/04/09 00:48:07;;;;;;;;;;;12.80;97.20;;;;;;5100091;28;19927;-59
2023/04/09 00:50:33;;;;;;;;;;;12.80;97.40;;;;;;5099949;28;20363;-59
2023/04/09 00:52:59;;;;;;;;;;;12.80;97.40;;;;;;5100130;28;19908;-59
2023/04/09 00:55:24;;;;;;;;;;;12.80;96.90;;;;;;5100296;28;19909;-59
2023/04/09 00:57:50;;;;;;;;;;;12.70;97.10;;;;;;5099987;28;19915;-59
2023/04/09 01:00:15;;;;;;;;;;;12.70;97.60;;;;;;5100434;28;20379;-59
2023/04/09 01:02:42;;;;;;;;;;;12.70;97.20;;;;;;5099913;28;19916;-59
2023/04/09 01:05:08;;;;;;;;;;;12.60;98.60;;;;;;5100030;28;20002;-59
2023/04/09 01:07:42;;;;;;;;;;;12.70;96.70;;;;;;5099971;28;19963;-59
2023/04/09 01:10:20;;;;;;;;;;;12.70;95.50;;;;;;5099660;28;19908;-59
2023/04/09 01:13:00;;;;;;;;;;;12.80;98.30;;;;;;5099661;28;19912;-59
2023/04/09 01:15:26;;;;;;;;;;;12.70;97.50;;;;;;5100097;28;19908;-59
2023/04/09 01:17:54;;;;;;;;;;;12.70;99.00;;;;;;5099828;28;19919;-59
2023/04/09 01:20:20;;;;;;;;;;;12.70;99.80;;;;;;5099479;28;20007;-59
2023/04/09 01:23:01;;;;;;;;;;;12.70;99.30;;;;;;5099682;28;20004;-59
2023/04/09 01:25:32;;;;;;;;;;;12.60;98.20;;;;;;5097992;28;19923;-59
2023/04/09 01:28:01;;;;;;;;;;;12.60;99.40;;;;;;5099511;28;19960;-59
2023/04/09 01:30:27;;;;;;;;;;;12.60;98.00;;;;;;5099538;28;19908;-59
2023/04/09 01:32:54;;;;;;;;;;;12.60;98.50;;;;;;5099663;28;19917;-59
2023/04/09 01:35:20;;;;;;;;;;;12.60;98.20;;;;;;5099459;28;19908;-59
2023/04/09 01:37:46;;;;;;;;;;;12.70;97.80;;;;;;5099465;28;19922;-59
2023/04/09 01:40:12;;;;;;;;;;;12.60;99.90;;;;;;5099156;28;19908;-59
2023/04/09 01:42:38;;;;;;;;;;;12.60;99.30;;;;;;5099473;28;19954;-59
2023/04/09 01:45:04;;;;;;;;;;;12.60;99.60;;;;;;5099278;28;19959;-59
2023/04/09 01:47:30;;;;;;;;;;;12.50;99.90;;;;;;5098286;28;19912;-59
2023/04/09 01:49:56;;;;;;;;;;;12.50;99.90;;;;;;5098945;28;19940;-59
2023/04/09 01:52:22;;;;;;;;;;;12.50;99.20;;;;;;5099469;28;20271;-59
2023/04/09 01:54:48;;;;;;;;;;;12.50;99.20;;;;;;5098894;28;19947;-59
2023/04/09 01:57:13;;;;;;;;;;;12.50;99.70;;;;;;5099117;28;19908;-59
2023/04/09 01:59:39;;;;;;;;;;;12.50;99.90;;;;;;5098826;28;19908;-59
2023/04/09 02:02:25;;;;;;;;;;;12.50;99.90;;;;;;5098870;28;20324;-59
2023/04/09 02:04:51;;;;;;;;;;;12.40;99.90;;;;;;5098257;28;19908;-59
2023/04/09 02:07:17;;;;;;;;;;;12.40;99.90;;;;;;5098657;28;20003;-59
2023/04/09 02:09:44;;;;;;;;;;;12.40;99.90;;;;;;5098951;28;19962;-59
2023/04/09 02:12:12;;;;;;;;;;;12.40;99.90;;;;;;5098563;28;19915;-59
2023/04/09 02:14:39;;;;;;;;;;;12.40;99.80;;;;;;5099161;28;20394;-59
2023/04/09 02:17:04;;;;;;;;;;;12.40;99.90;;;;;;5098934;28;19908;-59
2023/04/09 02:19:39;;;;;;;;;;;12.30;99.90;;;;;;5098756;28;20311;-59
2023/04/09 02:22:05;;;;;;;;;;;12.30;99.30;;;;;;5098584;28;19916;-59
2023/04/09 02:24:30;;;;;;;;;;;12.30;99.80;;;;;;5098675;28;19908;-59
2023/04/09 02:26:56;;;;;;;;;;;12.30;99.90;;;;;;5098302;28;19924;-59
2023/04/09 02:29:22;;;;;;;;;;;12.30;99.90;;;;;;5098639;28;19915;-59
2023/04/09 02:31:48;;;;;;;;;;;12.20;99.90;;;;;;5098616;28;19908;-59
2023/04/09 02:34:14;;;;;;;;;;;12.10;99.90;;;;;;5098560;28;19908;-59
2023/04/09 02:36:40;;;;;;;;;;;12.10;99.90;;;;;;5098722;28;20256;-59
2023/04/09 02:39:06;;;;;;;;;;;12.20;99.70;;;;;;5098131;28;19916;-59
2023/04/09 02:41:31;;;;;;;;;;;12.10;99.90;;;;;;5098501;28;19909;-59
2023/04/09 02:43:57;;;;;;;;;;;12.20;99.90;;;;;;5098079;28;20401;-59
2023/04/09 02:46:22;;;;;;;;;;;12.10;99.90;;;;;;5098142;28;19973;-59
2023/04/09 02:48:48;;;;;;;;;;;12.00;99.90;;;;;;5098303;28;20279;-59
2023/04/09 02:51:14;;;;;;;;;;;12.10;99.90;;;;;;5098595;28;19908;-59
2023/04/09 02:53:40;;;;;;;;;;;12.00;99.90;;;;;;5098379;28;19908;-59
2023/04/09 02:56:05;;;;;;;;;;;12.00;99.90;;;;;;5097951;28;19908;-59
2023/04/09 02:58:31;;;;;;;;;;;12.00;99.90;;;;;;5098144;28;19908;-59
2023/04/09 03:00:56;;;;;;;;;;;12.00;99.90;;;;;;5102298;28;19919;-59
2023/04/09 03:03:22;;;;;;;;;;;12.00;99.90;;;;;;5102660;28;19930;-59
2023/04/09 03:05:47;;;;;;;;;;;12.00;99.90;;;;;;5102253;28;19908;-59
2023/04/09 03:08:13;;;;;;;;;;;12.00;99.90;;;;;;5102300;28;19911;-59
2023/04/09 03:10:39;;;;;;;;;;;11.90;99.90;;;;;;5102113;28;20006;-59
2023/04/09 03:13:04;;;;;;;;;;;11.90;99.90;;;;;;5101976;28;19908;-59
2023/04/09 03:15:30;;;;;;;;;;;11.90;99.90;;;;;;5102365;28;19908;-59
2023/04/09 03:17:55;;;;;;;;;;;11.90;99.90;;;;;;5101916;28;19912;-59
2023/04/09 03:20:21;;;;;;;;;;;11.90;99.90;;;;;;5102149;28;19961;-59
2023/04/09 03:22:47;;;;;;;;;;;11.90;99.90;;;;;;5102458;28;19991;-59
2023/04/09 03:25:12;;;;;;;;;;;11.90;99.90;;;;;;5101813;28;20256;-59
2023/04/09 03:27:38;;;;;;;;;;;11.90;99.90;;;;;;5102125;28;20412;-59
2023/04/09 03:30:04;;;;;;;;;;;11.80;99.90;;;;;;5101748;28;19908;-59
2023/04/09 03:32:30;;;;;;;;;;;11.80;99.90;;;;;;5101872;28;19908;-59
2023/04/09 03:34:55;;;;;;;;;;;11.80;99.90;;;;;;5101977;28;19908;-59
2023/04/09 03:37:21;;;;;;;;;;;11.80;99.90;;;;;;5101705;28;19944;-59
2023/04/09 03:39:46;;;;;;;;;;;11.80;99.90;;;;;;5101517;28;19960;-59
2023/04/09 03:42:12;;;;;;;;;;;11.70;99.90;;;;;;5101464;28;19908;-59
2023/04/09 03:44:37;;;;;;;;;;;11.70;99.90;;;;;;5101658;28;19909;-59
2023/04/09 03:47:03;;;;;;;;;;;11.80;99.90;;;;;;5101531;28;19965;-59
2023/04/09 03:49:29;;;;;;;;;;;11.70;99.90;;;;;;5101355;28;19979;-59
2023/04/09 03:51:54;;;;;;;;;;;11.70;99.90;;;;;;5101542;28;19991;-59
2023/04/09 03:54:20;;;;;;;;;;;11.60;99.90;;;;;;5101164;28;19908;-59
2023/04/09 03:56:46;;;;;;;;;;;11.50;99.90;;;;;;5101727;28;19935;-58
2023/04/09 03:59:11;;;;;;;;;;;11.60;99.90;;;;;;5101268;28;19954;-59
2023/04/09 04:01:37;;;;;;;;;;;11.60;99.90;;;;;;5101284;28;19908;-59
2023/04/09 04:04:02;;;;;;;;;;;11.50;99.90;;;;;;5101573;28;19908;-59
2023/04/09 04:06:28;;;;;;;;;;;11.50;99.90;;;;;;5100974;28;19958;-59
2023/04/09 04:08:53;;;;;;;;;;;11.50;99.90;;;;;;5101265;28;19912;-59
2023/04/09 04:11:19;;;;;;;;;;;11.30;99.90;;;;;;5100672;28;19967;-59
2023/04/09 04:13:45;;;;;;;;;;;11.40;99.90;;;;;;5100667;28;19922;-59
2023/04/09 04:16:10;;;;;;;;;;;11.40;99.90;;;;;;5101013;28;19930;-59
2023/04/09 04:18:36;;;;;;;;;;;11.30;99.90;;;;;;5101003;28;19912;-59
2023/04/09 04:21:02;;;;;;;;;;;11.30;99.90;;;;;;5100699;28;19908;-59
2023/04/09 04:23:27;;;;;;;;;;;11.30;99.90;;;;;;5100870;28;19908;-59
2023/04/09 04:25:53;;;;;;;;;;;11.30;99.90;;;;;;5100552;28;19927;-59
2023/04/09 04:28:18;;;;;;;;;;;11.30;99.90;;;;;;5100725;28;19916;-59
2023/04/09 04:30:44;;;;;;;;;;;11.30;99.90;;;;;;5100866;28;19912;-59
2023/04/09 04:33:09;;;;;;;;;;;11.30;99.90;;;;;;5100994;28;19943;-59
2023/04/09 04:35:35;;;;;;;;;;;11.30;99.90;;;;;;5100719;28;19976;-59
2023/04/09 04:38:01;;;;;;;;;;;11.30;99.90;;;;;;5100846;28;19908;-59
2023/04/09 04:40:26;;;;;;;;;;;11.20;99.90;;;;;;5100557;28;20444;-59
2023/04/09 04:42:52;;;;;;;;;;;11.30;99.90;;;;;;5100817;28;19955;-59
2023/04/09 04:45:18;;;;;;;;;;;11.20;99.90;;;;;;5100537;28;19908;-59
2023/04/09 04:47:43;;;;;;;;;;;11.20;99.90;;;;;;5100169;28;19957;-59
2023/04/09 04:50:09;;;;;;;;;;;11.20;99.90;;;;;;5100693;28;19908;-59
2023/04/09 04:52:35;;;;;;;;;;;11.20;99.90;;;;;;5100372;28;19914;-59
2023/04/09 04:55:00;;;;;;;;;;;11.10;99.90;;;;;;5100160;28;19908;-59
2023/04/09 04:57:26;;;;;;;;;;;11.10;99.90;;;;;;5100042;28;19919;-59
2023/04/09 04:59:52;;;;;;;;;;;11.10;99.90;;;;;;5100009;28;19912;-59
2023/04/09 05:02:17;;;;;;;;;;;11.10;99.90;;;;;;5100160;28;20333;-59
2023/04/09 05:04:43;;;;;;;;;;;11.10;99.90;;;;;;5100346;28;19963;-59
2023/04/09 05:07:08;;;;;;;;;;;11.00;99.90;;;;;;5099957;28;19912;-59
2023/04/09 05:09:34;;;;;;;;;;;11.00;99.90;;;;;;5100016;28;19935;-59
2023/04/09 05:12:00;;;;;;;;;;;11.00;99.90;;;;;;5099749;28;19915;-59
2023/04/09 05:14:25;;;;;;;;;;;10.90;99.90;;;;;;5100150;28;20363;-59
2023/04/09 05:16:51;;;;;;;;;;;11.00;99.90;;;;;;5099669;28;20381;-59
2023/04/09 05:19:17;;;;;;;;;;;11.00;99.90;;;;;;5099410;28;19916;-59
2023/04/09 05:21:42;;;;;;;;;;;10.90;99.90;;;;;;5099761;28;19981;-59
2023/04/09 05:24:08;;;;;;;;;;;10.90;99.90;;;;;;5099590;28;19980;-58
2023/04/09 05:26:34;;;;;;;;;;;10.90;99.90;;;;;;5099128;28;19920;-59
2023/04/09 05:28:59;;;;;;;;;;;10.90;99.90;;;;;;5099625;28;19969;-59
2023/04/09 05:31:25;;;;;;;;;;;10.80;99.90;;;;;;5099606;28;19916;-59
2023/04/09 05:33:51;;;;;;;;;;;10.80;99.90;;;;;;5099676;28;20395;-58
2023/04/09 05:36:18;;;;;;;;;;;10.80;99.90;;;;;;5099217;28;19933;-59
2023/04/09 05:38:45;;;;;;;;;;;10.70;99.90;;;;;;5099339;28;19908;-59
2023/04/09 05:41:10;;;;;;;;;;;10.80;99.90;;;;;;5099387;28;19916;-59
2023/04/09 05:43:36;;;;;;;;;;;10.80;99.90;;;;;;5099432;28;20283;-59
2023/04/09 05:46:02;;;;;;;;;;;10.80;99.90;;;;;;5099329;28;19908;-59
2023/04/09 05:48:27;;;;;;;;;;;10.70;99.90;;;;;;5099331;28;19919;-59
2023/04/09 05:50:53;;;;;;;;;;;10.80;99.90;;;;;;5099232;28;20015;-59
2023/04/09 05:53:19;;;;;;;;;;;10.70;99.90;;;;;;5099163;28;20355;-59
2023/04/09 05:55:45;;;;;;;;;;;10.80;99.90;;;;;;5098914;28;19929;-59
2023/04/09 05:58:11;;;;;;;;;;;10.70;99.90;;;;;;5099075;28;19908;-58
2023/04/09 06:00:37;;;;;;;;;;;10.70;99.90;;;;;;5099056;28;19909;-59
2023/04/09 06:03:03;;;;;;;;;;;10.70;99.90;;;;;;5098813;28;19908;-58
2023/04/09 06:05:28;;;;;;;;;;;10.70;99.90;;;;;;5099224;28;19908;-59
2023/04/09 06:07:54;;;;;;;;;;;10.70;99.90;;;;;;5098655;28;20283;-59
2023/04/09 06:10:20;;;;;;;;;;;10.70;99.90;;;;;;5098724;28;19958;-59
2023/04/09 06:12:46;;;;;;;;;;;10.70;99.90;;;;;;5098713;28;19908;-59
2023/04/09 06:15:11;;;;;;;;;;;10.80;99.90;;;;;;5098798;28;19986;-59
2023/04/09 06:17:37;;;;;;;;;;;10.70;99.90;;;;;;5098836;28;19908;-59
2023/04/09 06:20:03;;;;;;;;;;;10.70;99.90;;;;;;5098771;28;19912;-59
2023/04/09 06:22:29;;;;;;;;;;;10.80;99.90;;;;;;5098973;28;19909;-59
2023/04/09 06:24:54;;;;;;;;;;;10.80;99.90;;;;;;5098688;28;19908;-59
2023/04/09 06:27:20;;;;;;;;;;;10.70;99.90;;;;;;5098038;28;20391;-59
2023/04/09 06:29:46;;;;;;;;;;;10.80;99.90;;;;;;5098603;28;19981;-59
2023/04/09 06:32:12;;;;;;;;;;;10.90;99.90;;;;;;5098737;28;20423;-59
2023/04/09 06:34:37;;;;;;;;;;;10.90;99.90;;;;;;5097950;28;19962;-59
2023/04/09 06:37:03;;;;;;;;;;;10.90;99.90;;;;;;5098694;28;19908;-59
2023/04/09 06:39:28;;;;;;;;;;;10.80;99.90;;;;;;5098591;28;19954;-59
2023/04/09 06:41:54;;;;;;;;;;;10.90;99.90;;;;;;5098466;28;19908;-59
2023/04/09 06:44:20;;;;;;;;;;;10.90;99.90;;;;;;5098477;28;20011;-59
2023/04/09 06:46:46;;;;;;;;;;;11.00;99.90;;;;;;5098752;28;20375;-59
2023/04/09 06:49:11;;;;;;;;;;;11.00;99.90;;;;;;5098464;28;19931;-59
2023/04/09 06:51:37;;;;;;;;;;;11.00;99.90;;;;;;5098270;28;20390;-59
2023/04/09 06:54:03;;;;;;;;;;;11.00;99.90;;;;;;5098386;28;19912;-59
2023/04/09 06:56:28;;;;;;;;;;;11.10;99.90;;;;;;5097965;28;19914;-59
2023/04/09 06:58:54;;;;;;;;;;;11.10;99.90;;;;;;5098413;28;19908;-59
2023/04/09 07:01:20;;;;;;;;;;;11.10;99.90;;;;;;5098078;28;19912;-59
2023/04/09 07:03:45;;;;;;;;;;;11.20;99.90;;;;;;5098288;28;19912;-59
2023/04/09 07:06:11;;;;;;;;;;;11.20;99.90;;;;;;5098153;28;19934;-59
2023/04/09 07:08:36;;;;;;;;;;;11.20;99.90;;;;;;5098030;28;20394;-59
2023/04/09 07:11:02;;;;;;;;;;;11.30;99.90;;;;;;5098305;28;19909;-59
2023/04/09 07:13:28;;;;;;;;;;;11.30;99.90;;;;;;5098224;28;19908;-59
2023/04/09 07:15:53;;;;;;;;;;;11.30;99.90;;;;;;5098328;28;19914;-59
2023/04/09 07:18:19;;;;;;;;;;;11.40;99.90;;;;;;5097911;28;20002;-59
2023/04/09 07:20:44;;;;;;;;;;;11.40;99.90;;;;;;5098227;28;19987;-59
2023/04/09 07:23:10;;;;;;;;;;;11.50;99.90;;;;;;5098116;28;20364;-59
2023/04/09 07:25:36;;;;;;;;;;;11.50;99.90;;;;;;5097696;28;19924;-59
2023/04/09 07:28:02;;;;;;;;;;;11.60;99.90;;;;;;5097943;28;19913;-59
2023/04/09 07:30:27;;;;;;;;;;;11.60;99.90;;;;;;5098044;28;19908;-59
2023/04/09 07:32:53;;;;;;;;;;;11.70;99.90;;;;;;5097605;28;19915;-59
2023/04/09 07:35:19;;;;;;;;;;;11.70;99.90;;;;;;5097636;28;19950;-59
2023/04/09 07:37:45;;;;;;;;;;;11.80;99.90;;;;;;5097802;28;19908;-59
2023/04/09 07:40:11;;;;;;;;;;;11.80;99.90;;;;;;5097962;28;20256;-59
2023/04/09 07:42:37;;;;;;;;;;;11.80;99.90;;;;;;5097791;28;20378;-59
2023/04/09 07:45:03;;;;;;;;;;;11.90;99.90;;;;;;5097931;28;19951;-59
2023/04/09 07:47:30;;;;;;;;;;;11.90;99.90;;;;;;5100758;28;19912;-59
2023/04/09 07:49:55;;;;;;;;;;;12.00;99.90;;;;;;5101314;28;19909;-59
2023/04/09 07:52:21;;;;;;;;;;;12.10;99.90;;;;;;5101591;28;19915;-59
2023/04/09 07:54:46;;;;;;;;;;;12.00;99.90;;;;;;5101490;28;20397;-59
2023/04/09 07:57:12;;;;;;;;;;;12.10;99.90;;;;;;5101463;28;19908;-59
2023/04/09 07:59:38;;;;;;;;;;;12.30;99.90;;;;;;5101638;28;19996;-59
2023/04/09 08:02:04;;;;;;;;;;;12.30;99.90;;;;;;5101360;28;20003;-59
2023/04/09 08:04:30;;;;;;;;;;;12.40;99.90;;;;;;5101292;28;20307;-59
2023/04/09 08:06:56;;;;;;;;;;;12.40;99.90;;;;;;5100778;28;19912;-59
2023/04/09 08:09:21;;;;;;;;;;;12.50;99.90;;;;;;5101030;28;19909;-59
2023/04/09 08:11:48;;;;;;;;;;;12.50;99.90;;;;;;5101447;28;20424;-59
2023/04/09 08:14:14;;;;;;;;;;;12.60;99.90;;;;;;5101105;28;19912;-59
2023/04/09 08:16:40;;;;;;;;;;;12.50;99.90;;;;;;5101332;28;19999;-59
2023/04/09 08:19:06;;;;;;;;;;;12.70;99.90;;;;;;5100748;28;20324;-59
2023/04/09 08:21:32;;;;;;;;;;;12.70;99.90;;;;;;5101148;28;19914;-59
2023/04/09 08:24:03;;;;;;;;;;;12.80;99.90;;;;;;5100730;28;20368;-59
2023/04/09 08:26:29;;;;;;;;;;;12.80;99.90;;;;;;5100420;28;19920;-59
2023/04/09 08:28:54;;;;;;;;;;;12.90;99.90;;;;;;5101078;28;20252;-59
2023/04/09 08:31:20;;;;;;;;;;;13.00;99.90;;;;;;5100765;28;19961;-59
2023/04/09 08:33:45;;;;;;;;;;;13.00;99.90;;;;;;5100729;28;19908;-59
2023/04/09 08:36:11;;;;;;;;;;;13.00;99.90;;;;;;5100680;28;20283;-59
2023/04/09 08:38:37;;;;;;;;;;;13.10;99.90;;;;;;5100614;28;19947;-59
2023/04/09 08:41:03;;;;;;;;;;;13.30;99.90;;;;;;5100631;28;19908;-59
2023/04/09 08:43:29;;;;;;;;;;;13.20;99.90;;;;;;5100359;28;19915;-59
2023/04/09 08:45:56;;;;;;;;;;;13.30;99.90;;;;;;5100207;28;20386;-59
2023/04/09 08:48:23;;;;;;;;;;;13.30;99.90;;;;;;5100095;28;19980;-59
2023/04/09 08:50:49;;;;;;;;;;;13.40;99.90;;;;;;5100192;28;19923;-59
2023/04/09 08:53:15;;;;;;;;;;;13.40;99.90;;;;;;5100371;28;19908;-59
2023/04/09 08:55:44;;;;;;;;;;;13.50;99.90;;;;;;5100283;28;19908;-59
2023/04/09 08:58:09;;;;;;;;;;;13.50;99.90;;;;;;5099512;28;20328;-59
2023/04/09 09:00:35;;;;;;;;;;;13.60;99.90;;;;;;5100202;28;20675;-59
2023/04/09 09:03:05;;;;;;;;;;;13.70;99.90;;;;;;5099749;28;20340;-59
2023/04/09 09:05:35;;;;;;;;;;;13.90;99.90;;;;;;5099901;28;19908;-59
2023/04/09 09:08:00;;;;;;;;;;;13.90;99.90;;;;;;5099935;28;19912;-59
2023/04/09 09:10:46;;;;;;;;;;;14.00;99.90;;;;;;5100018;28;20331;-59
2023/04/09 09:13:22;;;;;;;;;;;14.10;99.90;;;;;;5099473;28;19908;-59
2023/04/09 09:15:49;;;;;;;;;;;14.20;99.90;;;;;;5100038;28;19912;-59
2023/04/09 09:18:16;;;;;;;;;;;14.30;99.90;;;;;;5099880;28;19912;-59
2023/04/09 09:20:41;;;;;;;;;;;14.40;99.90;;;;;;5099418;28;20023;-59
2023/04/09 09:23:07;;;;;;;;;;;14.50;99.90;;;;;;5099755;28;19939;-59
2023/04/09 09:25:40;;;;;;;;;;;14.60;99.90;;;;;;5099519;28;19916;-59
2023/04/09 09:28:07;;;;;;;;;;;14.70;99.90;;;;;;5099623;28;20267;-59
2023/04/09 09:30:35;;;;;;;;;;;14.80;99.90;;;;;;5099489;28;20054;-59
2023/04/09 09:33:10;;;;;;;;;;;14.80;99.90;;;;;;5099601;28;20003;-59
2023/04/09 09:35:48;;;;;;;;;;;15.00;99.90;;;;;;5099151;28;20272;-59
2023/04/09 09:38:15;;;;;;;;;;;15.00;99.90;;;;;;5099727;28;19948;-59
2023/04/09 09:40:41;;;;;;;;;;;15.20;99.90;;;;;;5099279;28;19939;-59
2023/04/09 09:43:07;;;;;;;;;;;15.20;99.90;;;;;;5099103;28;19912;-59
2023/04/09 09:45:32;;;;;;;;;;;15.40;99.90;;;;;;5099333;28;19908;-59
2023/04/09 09:47:58;;;;;;;;;;;15.50;99.90;;;;;;5099312;28;20002;-59
2023/04/09 09:50:24;;;;;;;;;;;15.50;99.90;;;;;;5099667;28;19908;-59
2023/04/09 09:52:52;;;;;;;;;;;15.60;99.90;;;;;;5098822;28;20375;-59
2023/04/09 09:55:19;;;;;;;;;;;15.70;99.90;;;;;;5099415;28;19915;-59
2023/04/09 09:57:46;;;;;;;;;;;15.80;99.90;;;;;;5099107;28;19991;-59
2023/04/09 10:00:13;;;;;;;;;;;15.90;99.90;;;;;;5099052;28;19931;-59
2023/04/09 10:02:43;;;;;;;;;;;16.00;99.90;;;;;;5098856;28;20337;-59
2023/04/09 10:05:09;;;;;;;;;;;16.10;99.90;;;;;;5099068;28;19970;-59
2023/04/09 10:07:36;;;;;;;;;;;16.10;99.90;;;;;;5098905;28;19943;-59
2023/04/09 10:10:02;;;;;;;;;;;16.30;99.90;;;;;;5097869;28;20295;-59
2023/04/09 10:12:28;;;;;;;;;;;16.30;99.90;;;;;;5098900;28;19915;-59
2023/04/09 10:14:54;;;;;;;;;;;16.50;99.90;;;;;;5099019;28;19908;-59
2023/04/09 10:17:20;;;;;;;;;;;16.50;99.90;;;;;;5098618;28;20325;-59
2023/04/09 10:19:50;;;;;;;;;;;16.60;99.90;;;;;;5097171;28;19908;-59
2023/04/09 10:22:17;;;;;;;;;;;16.70;99.90;;;;;;5098907;28;19954;-59
2023/04/09 10:24:43;;;;;;;;;;;16.80;99.90;;;;;;5098263;28;19915;-59
2023/04/09 10:27:13;;;;;;;;;;;16.90;99.90;;;;;;5098044;28;19924;-59
2023/04/09 10:29:42;;;;;;;;;;;17.00;99.90;;;;;;5097757;28;20124;-59
2023/04/09 10:32:08;;;;;;;;;;;17.10;99.90;;;;;;5098206;28;19995;-59
2023/04/09 10:34:36;;;;;;;;;;;17.20;99.90;;;;;;5098375;28;19947;-59
2023/04/09 10:37:02;;;;;;;;;;;17.20;99.90;;;;;;5098384;28;19915;-59
2023/04/09 10:39:31;;;;;;;;;;;17.40;99.90;;;;;;5098673;28;19961;-59
2023/04/09 10:41:58;;;;;;;;;;;17.50;99.90;;;;;;5098453;28;19919;-59
2023/04/09 10:44:25;;;;;;;;;;;17.60;99.90;;;;;;5098629;28;19930;-59
2023/04/09 10:46:52;;;;;;;;;;;17.70;99.90;;;;;;5098193;28;19951;-59
2023/04/09 10:49:19;;;;;;;;;;;17.70;99.90;;;;;;5098261;28;20045;-59
2023/04/09 10:51:47;;;;;;;;;;;17.80;99.90;;;;;;5098283;28;19912;-59
2023/04/09 10:54:33;;;;;;;;;;;17.90;98.90;;;;;;5098412;28;19915;-59
2023/04/09 10:57:14;;;;;;;;;;;17.80;98.80;;;;;;5097998;28;19915;-59
2023/04/09 10:59:41;;;;;;;;;;;18.00;97.40;;;;;;5098075;28;20393;-59
2023/04/09 11:02:07;;;;;;;;;;;18.10;97.40;;;;;;5097926;28;20260;-59
2023/04/09 11:04:48;;;;;;;;;;;18.20;97.70;;;;;;5098048;28;20371;-59
2023/04/09 11:07:14;;;;;;;;;;;18.40;98.80;;;;;;5098103;28;19918;-59
2023/04/09 11:09:40;;;;;;;;;;;18.40;99.90;;;;;;5098257;28;19995;-59
2023/04/09 11:12:06;;;;;;;;;;;18.40;97.40;;;;;;5098283;28;19948;-59
2023/04/09 11:14:32;;;;;;;;;;;18.30;98.60;;;;;;5098029;28;19915;-59
2023/04/09 11:16:58;;;;;;;;;;;18.50;98.30;;;;;;5098172;28;19915;-59
2023/04/09 11:19:23;;;;;;;;;;;18.50;96.00;;;;;;5098391;28;19909;-59
2023/04/09 11:21:49;;;;;;;;;;;18.50;99.20;;;;;;5101803;28;19908;-59
2023/04/09 11:24:15;;;;;;;;;;;18.60;98.00;;;;;;5102394;28;19908;-59
2023/04/09 11:26:40;;;;;;;;;;;18.50;97.80;;;;;;5101518;28;19926;-59
2023/04/09 11:29:09;;;;;;;;;;;18.60;99.00;;;;;;5101614;28;19913;-59
2023/04/09 11:31:35;;;;;;;;;;;18.50;97.00;;;;;;5101969;28;19915;-60
2023/04/09 11:34:02;;;;;;;;;;;18.50;96.40;;;;;;5101882;28;19908;-60
2023/04/09 11:36:27;;;;;;;;;;;18.50;97.30;;;;;;5101858;28;19912;-60
2023/04/09 11:38:56;;;;;;;;;;;18.50;96.90;;;;;;5102078;28;19908;-60
2023/04/09 11:41:40;;;;;;;;;;;18.60;97.60;;;;;;5101738;28;19915;-60
2023/04/09 11:44:06;;;;;;;;;;;18.70;97.40;;;;;;5101750;28;20117;-60
2023/04/09 11:46:33;;;;;;;;;;;18.70;96.40;;;;;;5101384;28;19908;-60
2023/04/09 11:48:59;;;;;;;;;;;18.70;98.20;;;;;;5101625;28;19908;-59
2023/04/09 11:51:30;;;;;;;;;;;18.70;96.50;;;;;;5101557;28;19914;-59
2023/04/09 11:54:00;;;;;;;;;;;18.60;97.60;;;;;;5101397;28;19932;-60
2023/04/09 11:56:27;;;;;;;;;;;18.70;97.90;;;;;;5101236;28;20363;-60
2023/04/09 11:58:53;;;;;;;;;;;18.60;97.40;;;;;;5101455;28;19914;-60
2023/04/09 12:01:20;;;;;;;;;;;18.70;98.30;;;;;;5101664;28;20002;-60
2023/04/09 12:03:51;;;;;;;;;;;18.70;98.00;;;;;;5101124;28;19908;-60
2023/04/09 12:06:19;;;;;;;;;;;18.70;98.70;;;;;;5101302;28;19944;-60
2023/04/09 12:08:44;;;;;;;;;;;18.60;98.00;;;;;;5100931;28;19919;-60
2023/04/09 12:11:11;;;;;;;;;;;18.70;98.00;;;;;;5101240;28;20383;-60
2023/04/09 12:13:41;;;;;;;;;;;18.70;97.50;;;;;;5100876;28;19908;-59
2023/04/09 12:16:08;;;;;;;;;;;18.70;97.90;;;;;;5100830;28;20383;-60
2023/04/09 12:18:35;;;;;;;;;;;18.70;97.50;;;;;;5101057;28;19934;-60
2023/04/09 12:21:01;;;;;;;;;;;18.70;98.70;;;;;;5100777;28;19999;-60
2023/04/09 12:23:27;;;;;;;;;;;18.80;98.00;;;;;;5100912;28;19912;-60
2023/04/09 12:25:54;;;;;;;;;;;18.80;97.50;;;;;;5100562;28;19920;-60
2023/04/09 12:28:19;;;;;;;;;;;18.90;96.30;;;;;;5100785;28;19925;-60
2023/04/09 12:30:45;;;;;;;;;;;18.80;96.20;;;;;;5100712;28;20008;-60
2023/04/09 12:33:11;;;;;;;;;;;18.80;94.10;;;;;;5099824;28;19908;-60
2023/04/09 12:35:37;;;;;;;;;;;18.80;96.00;;;;;;5100592;28;19957;-60
2023/04/09 12:38:03;;;;;;;;;;;18.90;94.10;;;;;;5100402;28;19908;-60
2023/04/09 12:40:29;;;;;;;;;;;18.80;92.90;;;;;;5100495;28;19908;-60
2023/04/09 12:42:55;;;;;;;;;;;18.80;94.40;;;;;;5100645;28;19938;-59
2023/04/09 12:45:21;;;;;;;;;;;18.80;92.50;;;;;;5100350;28;20331;-60
2023/04/09 12:47:46;;;;;;;;;;;18.80;92.20;;;;;;5100393;28;19959;-59
2023/04/09 12:50:13;;;;;;;;;;;18.90;92.40;;;;;;5100229;28;19931;-59
2023/04/09 12:52:39;;;;;;;;;;;18.80;89.70;;;;;;5100004;28;19908;-60
2023/04/09 12:55:05;;;;;;;;;;;18.70;92.90;;;;;;5100352;28;19909;-59
2023/04/09 12:57:31;;;;;;;;;;;18.70;92.80;;;;;;5099901;28;19916;-59
2023/04/09 12:59:56;;;;;;;;;;;18.70;93.60;;;;;;5100513;28;19957;-60
2023/04/09 13:02:22;;;;;;;;;;;18.70;92.10;;;;;;5100029;28;20279;-60
2023/04/09 13:04:48;;;;;;;;;;;18.80;92.70;;;;;;5100160;28;19908;-60
2023/04/09 13:07:14;;;;;;;;;;;18.80;92.80;;;;;;5100186;28;20375;-60
2023/04/09 13:09:40;;;;;;;;;;;18.80;94.00;;;;;;5100178;28;19908;-60
2023/04/09 13:12:06;;;;;;;;;;;18.70;93.20;;;;;;5099791;28;19946;-60
2023/04/09 13:14:32;;;;;;;;;;;18.80;93.00;;;;;;5100033;28;19912;-60
2023/04/09 13:16:57;;;;;;;;;;;18.90;92.60;;;;;;5099975;28;19963;-60
2023/04/09 13:19:23;;;;;;;;;;;19.00;93.50;;;;;;5098351;28;19908;-59
2023/04/09 13:21:48;;;;;;;;;;;19.00;94.10;;;;;;5099410;28;19908;-59
2023/04/09 13:24:14;;;;;;;;;;;19.00;94.60;;;;;;5099597;28;19908;-60
2023/04/09 13:26:40;;;;;;;;;;;19.10;92.70;;;;;;5099362;28;19920;-60
2023/04/09 13:29:07;;;;;;;;;;;19.20;91.60;;;;;;5099411;28;19908;-60
2023/04/09 13:31:36;;;;;;;;;;;19.20;93.20;;;;;;5099248;28;19909;-59
2023/04/09 13:34:01;;;;;;;;;;;19.20;91.20;;;;;;5099341;28;20340;-60
2023/04/09 13:36:27;;;;;;;;;;;19.20;92.40;;;;;;5099109;28;19919;-60
2023/04/09 13:38:53;;;;;;;;;;;19.30;91.70;;;;;;5099319;28;19908;-59
2023/04/09 13:41:19;;;;;;;;;;;19.20;92.80;;;;;;5099452;28;19908;-59
2023/04/09 13:43:45;;;;;;;;;;;19.20;91.90;;;;;;5098433;28;19908;-59
2023/04/09 13:46:10;;;;;;;;;;;19.20;91.60;;;;;;5099558;28;20395;-60
2023/04/09 13:48:36;;;;;;;;;;;19.10;91.70;;;;;;5099243;28;19912;-60
2023/04/09 13:51:02;;;;;;;;;;;19.10;93.00;;;;;;5099436;28;19908;-60
2023/04/09 13:53:28;;;;;;;;;;;19.10;92.70;;;;;;5098996;28;20370;-60
2023/04/09 13:55:53;;;;;;;;;;;19.00;93.50;;;;;;5099308;28;19931;-59
2023/04/09 13:58:21;;;;;;;;;;;19.00;93.00;;;;;;5098994;28;19908;-60
2023/04/09 14:00:46;;;;;;;;;;;19.00;93.90;;;;;;5098727;28;19908;-60
2023/04/09 14:03:13;;;;;;;;;;;19.00;93.70;;;;;;5098865;28;19908;-60
2023/04/09 14:05:38;;;;;;;;;;;19.20;93.60;;;;;;5098658;28;19931;-60
2023/04/09 14:08:04;;;;;;;;;;;19.00;92.70;;;;;;5098702;28;19912;-60
2023/04/09 14:10:29;;;;;;;;;;;19.00;94.00;;;;;;5098554;28;19915;-60
2023/04/09 14:12:55;;;;;;;;;;;19.00;94.10;;;;;;5098930;28;19909;-60